createdAt,value
2018-01-10T00:05:11.030Z,2.27
2018-01-10T00:11:14.561Z,2.26
2018-01-10T00:17:18.342Z,2.12
2018-01-10T00:23:21.909Z,2.11
2018-01-10T00:29:25.990Z,2.09
2018-01-10T00:35:29.462Z,2.11
2018-01-10T00:41:33.013Z,2.20
2018-01-10T00:47:37.257Z,2.30
2018-01-10T00:53:40.871Z,2.30
2018-01-10T00:59:45.218Z,2.28
2018-01-10T01:05:48.683Z,2.46
2018-01-10T01:11:52.275Z,2.73
2018-01-10T01:17:56.086Z,2.89
2018-01-10T01:23:59.592Z,2.82
2018-01-10T01:30:03.049Z,2.74
2018-01-10T01:36:06.722Z,2.61
2018-01-10T01:42:10.193Z,2.61
2018-01-10T01:48:13.698Z,2.69
2018-01-10T01:54:18.043Z,2.24
2018-01-10T02:00:21.910Z,2.15
2018-01-10T02:06:27.073Z,2.31
2018-01-10T02:12:30.706Z,2.66
2018-01-10T02:18:34.357Z,2.92
2018-01-10T02:24:37.935Z,3.09
2018-01-10T02:30:42.231Z,3.18
2018-01-10T02:36:45.910Z,3.28
2018-01-10T02:42:49.442Z,3.05
2018-01-10T02:48:52.972Z,3.08
2018-01-10T02:54:57.087Z,3.21
2018-01-10T03:01:00.769Z,3.28
2018-01-10T03:07:05.408Z,3.27
2018-01-10T03:13:09.037Z,3.24
2018-01-10T03:19:12.787Z,3.19
2018-01-10T03:25:16.486Z,3.20
2018-01-10T03:31:19.910Z,3.26
2018-01-10T03:37:23.474Z,3.22
2018-01-10T03:43:27.228Z,3.27
2018-01-10T03:49:30.708Z,3.34
2018-01-10T03:55:34.517Z,3.56
2018-01-10T04:01:38.987Z,3.62
2018-01-10T04:07:43.330Z,3.44
2018-01-10T04:13:46.953Z,3.42
2018-01-10T04:19:50.433Z,3.46
2018-01-10T04:25:54.164Z,3.29
2018-01-10T04:31:58.334Z,3.13
2018-01-10T04:38:02.198Z,3.03
2018-01-10T04:44:05.747Z,3.04
2018-01-10T04:50:09.434Z,3.05
2018-01-10T04:56:13.168Z,3.09
2018-01-10T05:02:16.621Z,3.20
2018-01-10T05:08:21.075Z,3.30
2018-01-10T05:14:25.660Z,3.29
2018-01-10T05:20:29.591Z,3.40
2018-01-10T05:26:34.430Z,3.43
2018-01-10T05:32:37.908Z,3.44
2018-01-10T05:38:41.401Z,3.45
2018-01-10T05:44:44.865Z,3.36
2018-01-10T05:50:48.393Z,3.29
2018-01-10T05:56:52.640Z,3.10
2018-01-10T06:02:56.741Z,3.06
2018-01-10T06:09:00.370Z,3.17
2018-01-10T06:15:05.446Z,3.23
2018-01-10T06:21:08.938Z,3.24
2018-01-10T06:27:12.462Z,3.28
2018-01-10T06:33:16.067Z,3.36
2018-01-10T06:39:19.540Z,3.51
2018-01-10T06:45:23.091Z,3.61
2018-01-10T06:51:26.853Z,3.71
2018-01-10T06:57:30.389Z,3.78
2018-01-10T07:03:33.987Z,3.82
2018-01-10T07:09:37.588Z,3.86
2018-01-10T07:15:42.006Z,3.92
2018-01-10T07:21:45.551Z,3.91
2018-01-10T07:27:49.049Z,3.89
2018-01-10T07:33:52.623Z,3.85
2018-01-10T07:52:56.274Z,3.75
2018-01-10T07:58:59.772Z,3.81
2018-01-10T08:05:03.760Z,3.87
2018-01-10T08:11:07.229Z,4.03
2018-01-10T08:17:10.657Z,4.23
2018-01-10T08:23:14.114Z,4.51
2018-01-10T08:29:18.506Z,4.75
2018-01-10T08:35:21.998Z,4.85
2018-01-10T08:41:25.565Z,5.03
2018-01-10T08:47:29.171Z,5.17
2018-01-10T08:53:32.671Z,5.37
2018-01-10T08:59:36.172Z,5.46
2018-01-10T09:05:39.629Z,5.42
2018-01-10T09:11:43.059Z,5.40
2018-01-10T09:17:47.311Z,5.60
2018-01-10T09:23:50.791Z,5.53
2018-01-10T09:29:55.433Z,5.49
2018-01-10T09:35:59.284Z,5.46
2018-01-10T09:42:02.859Z,5.53
2018-01-10T09:48:06.445Z,5.67
2018-01-10T09:54:10.666Z,5.83
2018-01-10T10:00:14.194Z,5.90
2018-01-10T10:06:17.665Z,5.91
2018-01-10T10:12:21.164Z,5.92
2018-01-10T10:18:24.720Z,6.01
2018-01-10T10:24:29.730Z,6.15
2018-01-10T10:30:34.104Z,6.10
2018-01-10T10:36:38.348Z,6.17
2018-01-10T10:42:41.945Z,6.15
2018-01-10T10:48:46.150Z,6.17
2018-01-10T10:54:49.678Z,6.27
2018-01-10T11:00:53.144Z,6.34
2018-01-10T11:06:56.688Z,6.46
2018-01-10T11:13:00.370Z,6.48
2018-01-10T11:19:03.894Z,6.52
2018-01-10T11:25:07.463Z,6.75
2018-01-10T11:31:10.943Z,6.95
2018-01-10T11:37:14.439Z,7.02
2018-01-10T11:43:18.662Z,7.05
2018-01-10T11:49:22.336Z,7.12
2018-01-10T11:55:26.703Z,7.28
2018-01-10T12:01:30.259Z,7.35
2018-01-10T12:07:33.818Z,7.45
2018-01-10T12:13:37.298Z,7.63
2018-01-10T12:19:41.636Z,7.59
2018-01-10T12:25:45.232Z,7.71
2018-01-10T12:31:48.761Z,8.20
2018-01-10T12:37:52.366Z,8.37
2018-01-10T12:43:56.492Z,8.71
2018-01-10T12:49:59.990Z,8.81
2018-01-10T12:56:03.495Z,9.00
2018-01-10T13:02:06.967Z,8.79
2018-01-10T13:08:10.431Z,8.86
2018-01-10T13:14:14.870Z,9.32
2018-01-10T13:20:18.368Z,9.12
2018-01-10T13:26:21.824Z,8.68
2018-01-10T13:32:25.808Z,8.50
2018-01-10T13:38:29.640Z,8.50
2018-01-10T13:44:33.854Z,8.66
2018-01-10T13:50:37.361Z,8.60
2018-01-10T13:56:41.597Z,8.65
2018-01-10T14:02:45.073Z,8.52
2018-01-10T14:08:48.670Z,8.65
2018-01-10T14:14:52.196Z,8.18
2018-01-10T14:20:56.432Z,8.29
2018-01-10T14:27:00.609Z,8.17
2018-01-10T14:33:04.067Z,7.93
2018-01-10T14:39:07.724Z,7.56
2018-01-10T14:45:11.224Z,7.32
2018-01-10T14:51:14.679Z,7.21
2018-01-10T14:57:18.152Z,6.77
2018-01-10T15:03:21.640Z,6.43
2018-01-10T15:09:26.489Z,6.16
2018-01-10T15:15:30.369Z,5.81
2018-01-10T15:21:33.949Z,5.69
2018-01-10T15:27:37.468Z,5.46
2018-01-10T15:33:40.920Z,5.25
2018-01-10T15:39:44.398Z,5.11
2018-01-10T15:45:47.831Z,4.99
2018-01-10T15:51:51.428Z,4.93
2018-01-10T15:57:56.095Z,4.76
2018-01-10T16:03:59.555Z,4.79
2018-01-10T16:10:03.002Z,4.70
2018-01-10T16:16:06.500Z,4.60
2018-01-10T16:22:10.086Z,4.33
2018-01-10T16:28:13.569Z,4.33
2018-01-10T16:34:17.014Z,4.35
2018-01-10T16:40:20.559Z,4.35
2018-01-10T16:46:24.013Z,4.13
2018-01-10T16:52:27.606Z,4.10
2018-01-10T16:58:31.962Z,4.12
2018-01-10T17:04:35.433Z,4.24
2018-01-10T17:10:39.653Z,4.29
2018-01-10T17:16:43.093Z,4.47
2018-01-10T17:22:46.590Z,4.50
2018-01-10T17:28:50.265Z,4.56
2018-01-10T17:34:54.832Z,4.54
2018-01-10T17:40:58.536Z,4.15
2018-01-10T17:47:01.995Z,3.97
2018-01-10T17:53:05.490Z,3.89
2018-01-10T17:59:08.948Z,3.86
2018-01-10T18:05:12.630Z,3.77
2018-01-10T18:11:16.835Z,3.68
2018-01-10T18:17:20.332Z,3.77
2018-01-10T18:23:24.068Z,3.53
2018-01-10T18:29:27.751Z,3.33
2018-01-10T18:35:31.264Z,3.18
2018-01-10T18:41:34.687Z,3.16
2018-01-10T18:47:38.918Z,3.28
2018-01-10T18:53:42.487Z,3.41
2018-01-10T18:59:46.003Z,3.34
2018-01-10T19:05:49.478Z,3.30
2018-01-10T19:11:52.987Z,3.26
2018-01-10T19:17:56.594Z,3.20
2018-01-10T19:24:00.139Z,3.07
2018-01-10T19:30:03.678Z,3.09
2018-01-10T19:36:07.125Z,3.06
2018-01-10T19:42:10.645Z,3.13
2018-01-10T19:48:14.925Z,3.12
2018-01-10T19:54:19.121Z,3.08
2018-01-10T20:00:22.614Z,3.00
2018-01-10T20:06:26.878Z,3.05
2018-01-10T20:12:30.322Z,3.02
2018-01-10T20:18:33.917Z,2.92
2018-01-10T20:24:38.156Z,2.86
2018-01-10T20:30:41.631Z,2.76
2018-01-10T20:36:45.093Z,2.71
2018-01-10T20:42:49.358Z,2.73
2018-01-10T20:48:52.797Z,2.71
2018-01-10T20:54:56.282Z,2.79
2018-01-10T21:00:59.900Z,2.92
2018-01-10T21:07:03.534Z,2.85
2018-01-10T21:13:07.864Z,2.82
2018-01-10T21:19:12.095Z,2.95
2018-01-10T21:25:15.582Z,3.03
2018-01-10T21:31:19.143Z,3.22
2018-01-10T21:37:23.355Z,3.25
2018-01-10T21:43:26.864Z,3.20
2018-01-10T21:49:31.086Z,2.93
2018-01-10T21:55:34.546Z,2.63
2018-01-10T22:01:38.042Z,2.48
2018-01-10T22:07:42.314Z,2.64
2018-01-10T22:13:46.524Z,2.64
2018-01-10T22:19:50.040Z,2.56
2018-01-10T22:25:54.434Z,2.49
2018-01-10T22:31:57.986Z,2.74
2018-01-10T22:38:01.441Z,2.57
2018-01-10T22:44:04.891Z,2.47
2018-01-10T22:50:08.417Z,2.50
2018-01-10T22:56:11.843Z,2.50
2018-01-10T23:02:16.231Z,2.48
2018-01-10T23:08:20.802Z,2.42
2018-01-10T23:14:24.371Z,2.37
2018-01-10T23:20:28.407Z,2.27
2018-01-10T23:26:32.147Z,2.40
2018-01-10T23:32:36.390Z,2.44
2018-01-10T23:38:40.613Z,2.35
2018-01-10T23:44:44.050Z,2.39
2018-01-10T23:50:47.542Z,2.38
2018-01-10T23:56:51.499Z,2.41
